Time;durP1;ratioP1;P1;durP2;ratioP2;P2;SDS_P1;SDS_P2;PMS_P1;PMS_P2;Temp;Humidity;BMP_temperature;BMP_pressure;BME280_temperature;BME280_humidity;BME280_pressure;Samples;Min_cycle;Max_cycle;Signal;HPM_P1;HPM_P2
2023/07/10 00:00:04;;;;;;;22.30;19.30;;;;;;;20.00;100.00;101059.91;690189;28;972;-55
2023/07/10 00:00:32;;;;;;;21.83;19.42;;;;;;;20.00;100.00;101067.84;689905;28;1136;-56
2023/07/10 00:00:53;;;;;;;21.23;18.90;;;;;;;20.01;100.00;101067.78;689584;28;1457;-56
2023/07/10 00:01:15;;;;;;;20.30;18.20;;;;;;;20.02;100.00;101069.53;690285;28;4395;-56
2023/07/10 00:01:35;;;;;;;20.20;17.80;;;;;;;20.02;100.00;101064.22;689430;28;952;-56
2023/07/10 00:01:56;;;;;;;20.93;17.80;;;;;;;20.04;100.00;101072.13;689427;28;1515;-56
2023/07/10 00:02:16;;;;;;;20.00;17.88;;;;;;;20.02;100.00;101066.88;689688;28;806;-55
2023/07/10 00:02:36;;;;;;;20.37;18.27;;;;;;;20.01;100.00;101070.44;690437;28;828;-55
2023/07/10 00:02:58;;;;;;;21.38;19.08;;;;;;;19.99;100.00;101067.00;689072;28;1623;-55
2023/07/10 00:03:19;;;;;;;21.23;18.95;;;;;;;19.97;100.00;101070.63;690816;28;1306;-54
2023/07/10 00:03:40;;;;;;;21.33;19.05;;;;;;;19.96;100.00;101075.06;689431;28;1586;-57
2023/07/10 00:04:00;;;;;;;21.10;18.77;;;;;;;19.97;100.00;101073.28;690599;28;1403;-55
2023/07/10 00:04:20;;;;;;;20.93;18.27;;;;;;;19.97;100.00;101074.13;690300;28;4515;-55
2023/07/10 00:04:41;;;;;;;20.00;17.95;;;;;;;19.97;100.00;101073.28;689221;28;1504;-56
2023/07/10 00:05:01;;;;;;;20.83;18.53;;;;;;;19.95;100.00;101075.13;690573;28;872;-56
2023/07/10 00:05:21;;;;;;;21.77;19.40;;;;;;;19.95;100.00;101078.66;690516;28;958;-55
2023/07/10 00:05:42;;;;;;;21.73;18.40;;;;;;;19.95;100.00;101076.00;689411;28;1463;-57
2023/07/10 00:06:02;;;;;;;21.87;18.27;;;;;;;19.95;100.00;101073.34;690191;28;904;-56
2023/07/10 00:06:23;;;;;;;21.17;18.20;;;;;;;19.97;100.00;101071.47;690917;28;880;-56
2023/07/10 00:06:45;;;;;;;20.77;18.48;;;;;;;19.96;100.00;101069.75;690437;28;1471;-55
2023/07/10 00:07:05;;;;;;;21.10;18.55;;;;;;;19.96;100.00;101068.91;689675;28;1092;-56
2023/07/10 00:07:25;;;;;;;20.57;18.33;;;;;;;19.95;100.00;101073.34;690258;28;4315;-55
2023/07/10 00:07:46;;;;;;;21.83;18.42;;;;;;;19.95;100.00;101073.34;689809;28;1444;-56
2023/07/10 00:08:06;;;;;;;21.20;18.90;;;;;;;19.94;100.00;101068.06;689914;28;908;-53
2023/07/10 00:08:27;;;;;;;20.65;18.45;;;;;;;19.94;100.00;101068.94;690463;28;916;-55
2023/07/10 00:08:47;;;;;;;20.77;18.63;;;;;;;19.93;100.00;101064.56;684926;28;1698;-55
2023/07/10 00:09:07;;;;;;;21.95;19.65;;;;;;;19.95;100.00;101068.03;684550;28;940;-56
2023/07/10 00:09:28;;;;;;;21.80;19.47;;;;;;;19.94;100.00;101066.31;685190;28;877;-55
2023/07/10 00:09:49;;;;;;;21.70;19.40;;;;;;;19.94;100.00;101068.94;684129;28;1466;-55
2023/07/10 00:10:11;;;;;;;20.95;18.85;;;;;;;19.94;100.00;101063.66;686735;28;4553;-54
2023/07/10 00:10:32;;;;;;;21.63;19.38;;;;;;;19.92;100.00;101068.13;688179;28;876;-56
2023/07/10 00:10:53;;;;;;;21.02;18.80;;;;;;;19.92;100.00;101070.78;689685;28;1069;-56
2023/07/10 00:11:17;;;;;;;21.17;18.97;;;;;;;19.90;100.00;101059.38;690183;28;920;-56
2023/07/10 00:11:40;;;;;;;20.73;18.52;;;;;;;19.91;100.00;101061.13;690714;28;975;-56
2023/07/10 00:12:01;;;;;;;20.42;18.33;;;;;;;19.90;100.00;101062.03;690267;28;1427;-56
2023/07/10 00:12:22;;;;;;;19.88;17.77;;;;;;;19.92;100.00;101061.97;690082;28;1974;-55
2023/07/10 00:12:44;;;;;;;20.65;18.52;;;;;;;19.92;100.00;101057.53;689499;28;1586;-56
2023/07/10 00:13:04;;;;;;;22.20;19.30;;;;;;;19.92;100.00;101062.81;689023;28;1377;-56
2023/07/10 00:13:25;;;;;;;20.98;18.77;;;;;;;19.91;100.00;101063.78;689709;28;4497;-56
2023/07/10 00:13:45;;;;;;;20.97;18.67;;;;;;;19.90;100.00;101064.69;689252;28;1205;-54
2023/07/10 00:14:16;;;;;;;20.55;18.35;;;;;;;19.89;100.00;101065.59;690060;28;1201;-55
2023/07/10 00:14:37;;;;;;;20.27;18.13;;;;;;;19.89;100.00;101069.09;689876;28;900;-56
2023/07/10 00:14:57;;;;;;;21.00;18.63;;;;;;;19.89;100.00;101063.81;689771;28;910;-54
2023/07/10 00:15:21;;;;;;;21.40;19.15;;;;;;;19.90;100.00;101065.53;689847;28;923;-55
2023/07/10 00:15:41;;;;;;;20.30;18.30;;;;;;;19.92;100.00;101068.13;689370;28;1230;-54
2023/07/10 00:16:02;;;;;;;20.23;18.13;;;;;;;19.92;100.00;101065.47;687639;28;885;-56
2023/07/10 00:16:24;;;;;;;20.53;18.43;;;;;;;19.93;100.00;101071.66;687032;28;4627;-56
2023/07/10 00:16:45;;;;;;;20.52;18.42;;;;;;;19.94;100.00;101073.38;686807;28;964;-54
2023/07/10 00:17:07;;;;;;;21.23;18.93;;;;;;;19.94;100.00;101068.06;687182;28;1059;-55
2023/07/10 00:17:28;;;;;;;21.00;18.60;;;;;;;19.95;100.00;101072.47;687989;28;960;-55
2023/07/10 00:17:51;;;;;;;21.70;19.40;;;;;;;19.95;100.00;101073.34;689073;28;1187;-56
2023/07/10 00:18:18;;;;;;;22.48;19.60;;;;;;;19.95;100.00;101069.81;692874;28;2059;-55
2023/07/10 00:18:38;;;;;;;21.63;19.27;;;;;;;19.95;100.00;101072.47;691497;28;929;-56
2023/07/10 00:18:59;;;;;;;23.30;20.00;;;;;;;19.96;100.00;101072.41;693252;28;1148;-54
2023/07/10 00:19:19;;;;;;;21.83;19.48;;;;;;;19.97;100.00;101071.47;692568;28;4501;-56
2023/07/10 00:19:41;;;;;;;20.80;18.60;;;;;;;19.99;100.00;101072.31;688099;28;3123;-56
2023/07/10 00:20:11;;;;;;;22.20;19.73;;;;;;;19.99;100.00;101074.97;687652;28;991;-55
2023/07/10 00:20:31;;;;;;;22.25;19.58;;;;;;;19.99;100.00;101072.31;686584;28;976;-55
2023/07/10 00:20:52;;;;;;;22.67;20.13;;;;;;;20.00;100.00;101071.38;683948;28;1527;-56
2023/07/10 00:21:13;;;;;;;24.70;21.23;;;;;;;20.02;100.00;101071.31;683450;28;972;-56
2023/07/10 00:21:33;;;;;;;23.23;20.73;;;;;;;20.01;100.00;101067.78;686165;28;853;-56
2023/07/10 00:21:53;;;;;;;23.17;20.03;;;;;;;20.02;100.00;101066.88;686696;28;1389;-55
2023/07/10 00:22:14;;;;;;;21.93;19.57;;;;;;;20.03;100.00;101067.72;684365;28;4425;-56
2023/07/10 00:22:34;;;;;;;22.13;19.63;;;;;;;20.02;100.00;101072.19;685025;28;778;-56
2023/07/10 00:22:55;;;;;;;22.37;20.07;;;;;;;20.02;100.00;101072.19;686065;28;1545;-56
2023/07/10 00:23:16;;;;;;;22.73;20.40;;;;;;;20.04;100.00;101069.47;688096;28;936;-55
2023/07/10 00:23:37;;;;;;;22.25;20.02;;;;;;;20.02;100.00;101064.22;690146;28;829;-56
2023/07/10 00:23:57;;;;;;;21.60;19.30;;;;;;;20.03;100.00;101065.94;688760;28;1820;-54
2023/07/10 00:24:18;;;;;;;21.60;19.30;;;;;;;20.04;100.00;101065.03;690862;28;935;-56
2023/07/10 00:24:38;;;;;;;22.55;20.15;;;;;;;20.03;100.00;101068.59;690675;28;924;-54
2023/07/10 00:24:59;;;;;;;21.53;19.23;;;;;;;20.04;100.00;101065.03;689745;28;884;-55
2023/07/10 00:25:20;;;;;;;21.40;19.10;;;;;;;20.05;100.00;101064.09;690028;28;4358;-55
2023/07/10 00:25:41;;;;;;;21.95;19.70;;;;;;;20.05;100.00;101064.09;688936;28;1559;-55
2023/07/10 00:26:10;;;;;;;22.33;20.07;;;;;;;20.05;100.00;101066.75;689628;28;1094;-56
2023/07/10 00:26:30;;;;;;;21.20;19.00;;;;;;;20.06;100.00;101070.25;690015;28;941;-56
2023/07/10 00:26:51;;;;;;;22.53;20.23;;;;;;;20.07;100.00;101072.00;688830;28;1747;-56
2023/07/10 00:27:12;;;;;;;22.57;20.13;;;;;;;20.08;100.00;101073.75;689503;28;1363;-56
2023/07/10 00:27:32;;;;;;;21.75;19.40;;;;;;;20.08;100.00;101066.63;687246;28;2171;-56
2023/07/10 00:27:53;;;;;;;23.25;20.30;;;;;;;20.08;100.00;101074.59;685860;28;1527;-56
2023/07/10 00:28:16;;;;;;;22.97;19.67;;;;;;;20.07;100.00;101069.34;687155;28;4487;-55
2023/07/10 00:28:37;;;;;;;21.48;19.05;;;;;;;20.07;100.00;101067.53;684581;28;958;-54
2023/07/10 00:29:04;;;;;;;22.58;20.05;;;;;;;20.08;100.00;101079.03;683760;28;1553;-55
2023/07/10 00:29:31;;;;;;;21.80;19.58;;;;;;;20.06;100.00;101076.47;684699;28;1277;-56
2023/07/10 00:29:51;;;;;;;22.20;19.88;;;;;;;20.06;100.00;101076.47;685911;28;1520;-56
2023/07/10 00:30:24;;;;;;;21.50;19.35;;;;;;;20.06;100.00;101073.81;687879;28;1061;-55
2023/07/10 00:30:46;;;;;;;21.25;19.00;;;;;;;20.06;100.00;101076.47;685771;28;1782;-55
2023/07/10 00:31:07;;;;;;;21.67;19.35;;;;;;;20.06;100.00;101076.47;686123;28;1004;-57
2023/07/10 00:31:27;;;;;;;21.97;19.67;;;;;;;20.08;100.00;101073.75;689955;28;4281;-55
2023/07/10 00:31:47;;;;;;;23.20;20.65;;;;;;;20.07;100.00;101075.50;686639;28;1346;-56
2023/07/10 00:32:11;;;;;;;23.40;19.90;;;;;;;20.07;100.00;101075.50;683751;28;2027;-56
2023/07/10 00:32:32;;;;;;;22.25;19.10;;;;;;;20.07;100.00;101070.19;686034;28;967;-56
2023/07/10 00:32:54;;;;;;;23.03;19.30;;;;;;;20.07;100.00;101070.19;686695;28;1449;-56
2023/07/10 00:33:17;;;;;;;21.60;19.30;;;;;;;20.07;100.00;101069.34;687490;28;884;-56
2023/07/10 00:33:37;;;;;;;21.48;19.10;;;;;;;20.07;100.00;101072.84;684832;28;909;-55
2023/07/10 00:33:58;;;;;;;21.98;19.33;;;;;;;20.08;100.00;101071.09;684536;28;1486;-56
2023/07/10 00:34:18;;;;;;;21.15;18.98;;;;;;;20.08;100.00;101071.94;686910;28;4389;-57
2023/07/10 00:34:39;;;;;;;20.70;18.50;;;;;;;20.08;100.00;101068.44;686735;28;987;-56
2023/07/10 00:34:59;;;;;;;21.55;18.60;;;;;;;20.07;100.00;101067.53;685835;28;976;-55
2023/07/10 00:35:22;;;;;;;22.43;18.57;;;;;;;20.07;100.00;101072.00;686130;28;1046;-53
2023/07/10 00:35:43;;;;;;;21.67;17.70;;;;;;;20.07;100.00;101067.53;685896;28;1551;-56
2023/07/10 00:36:19;;;;;;;21.05;17.48;;;;;;;20.06;100.00;101071.16;691396;28;951;-56
2023/07/10 00:36:40;;;;;;;20.55;18.38;;;;;;;20.03;100.00;101071.25;690324;28;888;-54
2023/07/10 00:37:00;;;;;;;21.33;19.00;;;;;;;20.04;100.00;101072.13;689840;28;924;-52
2023/07/10 00:37:21;;;;;;;20.67;18.47;;;;;;;20.03;100.00;101070.38;689721;28;4567;-56
2023/07/10 00:37:41;;;;;;;18.88;16.98;;;;;;;20.03;100.00;101070.38;688520;28;1579;-56
2023/07/10 00:38:14;;;;;;;19.53;17.53;;;;;;;20.03;100.00;101071.25;687248;28;1035;-55
2023/07/10 00:38:35;;;;;;;19.63;17.55;;;;;;;20.05;100.00;101071.22;684539;28;925;-55
2023/07/10 00:38:59;;;;;;;20.40;18.20;;;;;;;20.04;100.00;101072.97;683718;28;1852;-56
2023/07/10 00:39:28;;;;;;;21.15;17.27;;;;;;;20.04;100.00;101070.31;685080;28;953;-55
2023/07/10 00:39:49;;;;;;;19.83;17.73;;;;;;;20.04;100.00;101072.13;686594;28;1654;-55
2023/07/10 00:40:22;;;;;;;19.70;17.60;;;;;;;20.03;100.00;101071.25;686632;28;4481;-53
2023/07/10 00:40:46;;;;;;;19.33;17.30;;;;;;;20.04;100.00;101072.13;682587;28;1528;-55
2023/07/10 00:41:10;;;;;;;20.67;18.58;;;;;;;20.02;100.00;101074.84;682082;28;1415;-54
2023/07/10 00:41:35;;;;;;;20.63;18.42;;;;;;;20.01;100.00;101070.44;682301;28;1088;-57
2023/07/10 00:41:59;;;;;;;21.33;18.48;;;;;;;20.01;100.00;101078.41;683852;28;1525;-55
2023/07/10 00:42:22;;;;;;;20.83;18.48;;;;;;;20.02;100.00;101077.50;686603;28;5147;-55
2023/07/10 00:42:43;;;;;;;20.95;18.67;;;;;;;20.02;100.00;101074.84;685795;28;1516;-55
2023/07/10 00:43:34;;;;;;;21.38;18.25;;;;;;;20.02;100.00;101077.50;686751;28;2137;-56
2023/07/10 00:44:00;;;;;;;20.30;18.20;;;;;;;20.02;100.00;101073.94;682329;28;5049;-53
2023/07/10 00:44:23;;;;;;;20.00;17.90;;;;;;;20.01;100.00;101070.44;683083;28;913;-53
2023/07/10 00:44:53;;;;;;;19.67;17.67;;;;;;;20.01;100.00;101073.09;683251;28;1710;-55
2023/07/10 00:45:15;;;;;;;20.70;17.90;;;;;;;20.02;100.00;101076.59;685186;28;2174;-55
2023/07/10 00:45:36;;;;;;;19.65;17.48;;;;;;;20.02;100.00;101081.91;685172;28;1261;-55
2023/07/10 00:46:09;;;;;;;20.47;18.20;;;;;;;20.02;100.00;101076.59;686068;28;1520;-54
2023/07/10 00:46:41;;;;;;;20.98;18.77;;;;;;;20.01;100.00;101081.06;686699;28;4967;-55
2023/07/10 00:47:35;;;;;;;20.73;18.50;;;;;;;20.02;100.00;101080.16;684462;28;945;-55
2023/07/10 00:48:32;;;;;;;21.42;18.77;;;;;;;20.02;100.00;101072.19;687384;28;1571;-56
2023/07/10 00:48:57;;;;;;;20.30;17.75;;;;;;;20.02;100.00;101074.84;685180;28;1397;-56
2023/07/10 00:49:50;;;;;;;20.48;18.27;;;;;;;20.02;100.00;101073.94;686416;28;4637;-55
2023/07/10 00:50:16;;;;;;;20.30;18.20;;;;;;;19.99;100.00;101074.97;687036;28;1223;-56
2023/07/10 00:50:41;;;;;;;20.75;18.23;;;;;;;19.98;100.00;101073.22;688650;28;2185;-55
2023/07/10 00:51:12;;;;;;;20.17;17.58;;;;;;;19.98;100.00;101075.00;685997;28;956;-53
2023/07/10 00:51:42;;;;;;;19.27;17.20;;;;;;;19.97;100.00;101075.94;683041;28;1090;-56
2023/07/10 00:52:15;;;;;;;21.50;17.90;;;;;;;19.97;100.00;101079.44;682754;28;922;-55
2023/07/10 00:52:39;;;;;;;19.85;17.75;;;;;;;19.96;100.00;101075.06;685024;28;5072;-56
2023/07/10 00:53:04;;;;;;;19.73;17.83;;;;;;;19.96;100.00;101075.06;686156;28;869;-55
2023/07/10 00:53:31;;;;;;;19.10;17.10;;;;;;;19.95;100.00;101073.34;688201;28;1095;-55
2023/07/10 00:53:54;;;;;;;19.88;17.88;;;;;;;19.95;100.00;101075.13;688209;28;1082;-54
2023/07/10 00:54:30;;;;;;;19.50;17.50;;;;;;;19.95;100.00;101070.69;688740;28;1257;-55
2023/07/10 00:54:54;;;;;;;20.30;17.85;;;;;;;19.96;100.00;101074.19;688224;28;1480;-56
2023/07/10 00:55:29;;;;;;;20.67;18.10;;;;;;;19.96;100.00;101069.75;688070;28;4462;-55
2023/07/10 00:55:53;;;;;;;20.42;18.23;;;;;;;19.95;100.00;101068.03;689135;28;1622;-56
2023/07/10 00:56:18;;;;;;;20.67;18.48;;;;;;;19.95;100.00;101068.03;689696;28;1011;-54
2023/07/10 00:56:41;;;;;;;21.30;19.08;;;;;;;19.96;100.00;101072.41;689026;28;1011;-55
2023/07/10 00:57:05;;;;;;;19.92;17.90;;;;;;;19.95;100.00;101068.03;689723;28;848;-53
2023/07/10 00:57:34;;;;;;;20.13;17.98;;;;;;;19.94;100.00;101071.59;689832;28;2156;-55
2023/07/10 00:58:06;;;;;;;22.48;18.17;;;;;;;19.92;100.00;101070.78;689239;28;1696;-56
2023/07/10 00:58:38;;;;;;;20.67;18.40;;;;;;;19.93;100.00;101075.19;689339;28;4508;-56
2023/07/10 00:59:27;;;;;;;19.85;17.73;;;;;;;19.95;100.00;101069.81;688868;28;1468;-53
2023/07/10 00:59:49;;;;;;;20.80;18.60;;;;;;;19.96;100.00;101077.72;691537;28;1546;-55
2023/07/10 01:00:17;;;;;;;20.58;17.75;;;;;;;19.96;100.00;101069.75;691996;28;979;-56
2023/07/10 01:00:37;;;;;;;19.60;17.60;;;;;;;19.97;100.00;101071.47;688254;28;1224;-56
2023/07/10 01:01:06;;;;;;;20.40;18.20;;;;;;;19.98;100.00;101075.88;684725;28;1524;-54
2023/07/10 01:01:28;;;;;;;20.48;18.02;;;;;;;19.99;100.00;101069.66;684630;28;4438;-56
2023/07/10 01:02:07;;;;;;;21.23;18.77;;;;;;;19.99;100.00;101074.97;682230;28;1744;-55
2023/07/10 01:02:27;;;;;;;20.75;18.65;;;;;;;19.98;100.00;101073.22;684420;28;989;-54
2023/07/10 01:02:48;;;;;;;20.33;18.23;;;;;;;19.97;100.00;101074.13;686823;28;1441;-55
2023/07/10 01:03:13;;;;;;;20.02;17.92;;;;;;;19.97;100.00;101070.63;687172;28;1406;-55
2023/07/10 01:03:35;;;;;;;21.05;18.95;;;;;;;19.96;100.00;101072.41;690286;28;1027;-56
2023/07/10 01:03:57;;;;;;;20.98;18.77;;;;;;;19.97;100.00;101070.63;686881;28;1678;-55
2023/07/10 01:04:19;;;;;;;20.73;18.55;;;;;;;19.96;100.00;101075.06;686005;28;4386;-56
2023/07/10 01:04:46;;;;;;;20.77;18.58;;;;;;;19.96;100.00;101074.19;683875;28;1176;-54
2023/07/10 01:05:08;;;;;;;20.17;17.98;;;;;;;19.97;100.00;101070.63;688205;28;1036;-55
2023/07/10 01:05:31;;;;;;;20.25;17.83;;;;;;;19.97;100.00;101071.47;687493;28;880;-53
2023/07/10 01:05:52;;;;;;;20.77;18.58;;;;;;;19.97;100.00;101074.13;682732;28;1480;-54
2023/07/10 01:06:33;;;;;;;21.98;18.85;;;;;;;20.00;100.00;101073.16;684133;28;1131;-54
2023/07/10 01:06:53;;;;;;;20.70;18.40;;;;;;;20.00;100.00;101074.00;686012;28;1469;-55
2023/07/10 01:07:16;;;;;;;20.23;18.13;;;;;;;20.00;100.00;101073.16;687114;28;4586;-55
2023/07/10 01:07:43;;;;;;;20.73;18.52;;;;;;;20.00;100.00;101071.38;690323;28;1005;-55
2023/07/10 01:08:04;;;;;;;20.48;18.05;;;;;;;20.01;100.00;101074.91;689986;28;952;-54
2023/07/10 01:08:27;;;;;;;20.48;17.63;;;;;;;20.01;100.00;101072.25;690552;28;844;-56
2023/07/10 01:08:57;;;;;;;20.70;17.88;;;;;;;20.00;100.00;101076.66;689326;28;1523;-56
2023/07/10 01:09:17;;;;;;;20.35;18.25;;;;;;;20.02;100.00;101073.94;690465;28;952;-55
2023/07/10 01:09:44;;;;;;;21.23;18.42;;;;;;;20.06;100.00;101075.56;690536;28;1121;-55
2023/07/10 01:10:08;;;;;;;21.35;18.60;;;;;;;20.08;100.00;101071.94;689619;28;1439;-55
2023/07/10 01:10:30;;;;;;;19.63;17.55;;;;;;;20.07;100.00;101070.19;689762;28;6280;-55
2023/07/10 01:10:51;;;;;;;18.92;16.92;;;;;;;20.08;100.00;101068.44;686421;28;1508;-56
2023/07/10 01:11:11;;;;;;;20.40;16.73;;;;;;;20.06;100.00;101067.59;687228;28;1023;-56
2023/07/10 01:11:36;;;;;;;19.25;17.00;;;;;;;20.04;100.00;101072.97;687432;28;900;-56
2023/07/10 01:11:57;;;;;;;18.67;16.75;;;;;;;20.05;100.00;101072.06;686264;28;1650;-56
2023/07/10 01:12:19;;;;;;;20.70;17.23;;;;;;;20.04;100.00;101072.13;685379;28;1914;-55
2023/07/10 01:12:43;;;;;;;21.73;17.75;;;;;;;20.04;100.00;101072.97;688888;28;904;-56
2023/07/10 01:13:04;;;;;;;19.45;17.35;;;;;;;20.02;100.00;101073.94;689425;28;1231;-54
2023/07/10 01:13:25;;;;;;;19.17;17.17;;;;;;;20.01;100.00;101073.09;685866;28;4388;-54
2023/07/10 01:13:48;;;;;;;19.88;17.75;;;;;;;20.01;100.00;101072.25;683959;28;1220;-55
2023/07/10 01:14:10;;;;;;;20.20;17.65;;;;;;;19.99;100.00;101071.44;685728;28;1038;-55
2023/07/10 01:14:34;;;;;;;20.23;18.02;;;;;;;19.99;100.00;101074.97;687343;28;1015;-53
2023/07/10 01:14:56;;;;;;;20.98;17.70;;;;;;;19.99;100.00;101071.44;685372;28;1532;-56
2023/07/10 01:15:17;;;;;;;20.30;17.92;;;;;;;19.97;100.00;101068.84;687204;28;1098;-55
2023/07/10 01:15:38;;;;;;;21.70;17.83;;;;;;;19.97;100.00;101074.13;687423;28;947;-55
2023/07/10 01:15:59;;;;;;;20.13;17.10;;;;;;;19.97;100.00;101071.47;684259;28;3029;-55
2023/07/10 01:16:22;;;;;;;19.73;17.50;;;;;;;19.96;100.00;101077.72;687078;28;4561;-55
2023/07/10 01:16:42;;;;;;;20.27;16.92;;;;;;;19.97;100.00;101079.44;686580;28;1578;-55
2023/07/10 01:17:05;;;;;;;18.27;16.38;;;;;;;19.98;100.00;101077.66;689097;28;1030;-56
2023/07/10 01:17:28;;;;;;;18.25;16.35;;;;;;;19.98;100.00;101081.19;687325;28;1299;-55
2023/07/10 01:17:48;;;;;;;18.90;16.92;;;;;;;19.98;100.00;101086.50;684100;28;1570;-55
2023/07/10 01:18:11;;;;;;;19.40;17.30;;;;;;;20.02;100.00;101082.81;687655;28;1027;-53
2023/07/10 01:18:31;;;;;;;18.92;16.92;;;;;;;20.04;100.00;101077.44;687202;28;964;-56
2023/07/10 01:18:53;;;;;;;18.40;16.50;;;;;;;20.04;100.00;101078.28;683692;28;1643;-54
2023/07/10 01:19:22;;;;;;;18.23;16.33;;;;;;;20.04;100.00;101078.28;685201;28;4564;-55
2023/07/10 01:19:45;;;;;;;18.58;16.67;;;;;;;20.04;100.00;101083.59;685031;28;1472;-54
2023/07/10 01:20:29;;;;;;;18.42;16.30;;;;;;;20.03;100.00;101078.34;687640;28;968;-56
2023/07/10 01:20:51;;;;;;;17.80;15.95;;;;;;;20.02;100.00;101085.44;684694;28;1563;-55
2023/07/10 01:21:32;;;;;;;17.50;15.43;;;;;;;20.02;100.00;101079.25;687762;28;1420;-56
2023/07/10 01:21:52;;;;;;;17.60;15.70;;;;;;;20.01;100.00;101081.06;685232;28;1668;-56
2023/07/10 01:22:14;;;;;;;17.77;15.93;;;;;;;20.02;100.00;101082.81;683691;28;4603;-56
2023/07/10 01:22:35;;;;;;;17.45;15.65;;;;;;;20.06;100.00;101081.75;682570;28;822;-54
2023/07/10 01:22:56;;;;;;;17.17;15.38;;;;;;;20.07;100.00;101072.00;683221;28;970;-54
2023/07/10 01:23:18;;;;;;;17.27;15.33;;;;;;;20.08;100.00;101079.91;682617;28;1185;-55
2023/07/10 01:23:38;;;;;;;18.55;15.40;;;;;;;20.07;100.00;101078.16;681308;28;948;-56
2023/07/10 01:24:04;;;;;;;17.77;15.87;;;;;;;20.06;100.00;101080.88;683285;28;1617;-55
2023/07/10 01:24:25;;;;;;;17.00;15.30;;;;;;;20.05;100.00;101080.03;685004;28;1379;-54
2023/07/10 01:24:51;;;;;;;17.10;15.20;;;;;;;20.11;100.00;101078.06;684479;28;1812;-55
2023/07/10 01:25:12;;;;;;;16.42;14.60;;;;;;;20.13;100.00;101081.50;686765;28;4526;-54
2023/07/10 01:25:39;;;;;;;17.48;14.48;;;;;;;20.11;100.00;101083.38;686262;28;1184;-55
2023/07/10 01:26:03;;;;;;;18.35;14.55;;;;;;;20.10;100.00;101078.97;686665;28;1483;-54
2023/07/10 01:26:25;;;;;;;16.25;13.90;;;;;;;20.07;100.00;101075.50;689416;28;1071;-56
2023/07/10 01:26:46;;;;;;;16.48;14.15;;;;;;;20.20;100.00;101075.03;686152;28;2111;-56
2023/07/10 01:27:11;;;;;;;17.52;14.07;;;;;;;20.27;100.00;101073.91;685859;28;1142;-55
2023/07/10 01:27:32;;;;;;;16.10;13.38;;;;;;;20.21;100.00;101079.44;689801;28;817;-55
2023/07/10 01:27:52;;;;;;;14.38;12.82;;;;;;;20.17;100.00;101078.72;688902;28;1424;-54
2023/07/10 01:28:19;;;;;;;14.98;12.60;;;;;;;20.20;100.00;101073.28;686631;28;4398;-55
2023/07/10 01:28:39;;;;;;;15.20;12.77;;;;;;;20.24;100.00;101080.19;687606;28;1192;-54
2023/07/10 01:29:00;;;;;;;17.83;13.47;;;;;;;20.19;100.00;101074.19;685346;28;1644;-54
2023/07/10 01:29:23;;;;;;;14.68;12.80;;;;;;;20.17;100.00;101072.50;686711;28;1497;-55
2023/07/10 01:29:59;;;;;;;14.45;12.88;;;;;;;20.18;100.00;101079.56;684861;28;1956;-55
2023/07/10 01:30:43;;;;;;;14.23;12.73;;;;;;;20.22;100.00;101075.88;689832;28;1228;-53
2023/07/10 01:31:08;;;;;;;13.40;12.05;;;;;;;20.17;100.00;101073.41;690311;28;833;-55
2023/07/10 01:31:31;;;;;;;13.57;11.55;;;;;;;20.16;100.00;101073.44;688362;28;4985;-51
2023/07/10 01:31:54;;;;;;;12.73;11.40;;;;;;;20.16;100.00;101076.09;689600;28;1498;-54
2023/07/10 01:32:17;;;;;;;13.10;11.13;;;;;;;20.18;100.00;101074.25;691090;28;1918;-55
2023/07/10 01:32:37;;;;;;;13.70;11.00;;;;;;;20.18;100.00;101071.59;691699;28;875;-54
2023/07/10 01:32:59;;;;;;;14.00;11.10;;;;;;;20.15;100.00;101074.38;691820;28;1467;-55
2023/07/10 01:33:25;;;;;;;14.68;11.13;;;;;;;20.13;100.00;101076.22;686095;28;1441;-53
2023/07/10 01:33:58;;;;;;;11.88;10.63;;;;;;;20.10;100.00;101073.69;684778;28;1615;-54
2023/07/10 01:34:22;;;;;;;12.98;10.63;;;;;;;20.08;100.00;101071.94;684246;28;4604;-52
2023/07/10 01:34:55;;;;;;;12.85;11.25;;;;;;;20.05;100.00;101071.22;685395;28;1504;-55
2023/07/10 01:35:17;;;;;;;13.25;10.43;;;;;;;20.04;100.00;101072.13;688214;28;901;-53
2023/07/10 01:35:42;;;;;;;12.02;10.20;;;;;;;20.04;100.00;101069.47;689462;28;963;-55
2023/07/10 01:36:04;;;;;;;11.93;9.70;;;;;;;20.07;100.00;101072.00;690045;28;2195;-55
2023/07/10 01:36:30;;;;;;;12.32;10.35;;;;;;;20.06;100.00;101073.81;691951;28;1228;-55
2023/07/10 01:36:51;;;;;;;12.43;10.65;;;;;;;20.04;100.00;101062.38;690720;28;1487;-55
2023/07/10 01:37:12;;;;;;;12.00;10.57;;;;;;;20.03;100.00;101070.38;690629;28;4515;-53
2023/07/10 01:37:32;;;;;;;11.87;10.57;;;;;;;20.02;100.00;101069.53;689470;28;1387;-55
2023/07/10 01:37:53;;;;;;;12.05;10.80;;;;;;;19.99;100.00;101064.34;686771;28;1435;-55
2023/07/10 01:38:14;;;;;;;12.93;10.93;;;;;;;20.01;100.00;101061.63;689442;28;996;-54
2023/07/10 01:38:38;;;;;;;13.70;11.25;;;;;;;20.06;100.00;101060.53;689758;28;897;-55
2023/07/10 01:39:24;;;;;;;11.80;10.60;;;;;;;20.10;100.00;101060.41;688546;28;1129;-53
2023/07/10 01:39:48;;;;;;;11.90;10.15;;;;;;;20.11;100.00;101064.81;688898;28;1558;-54
2023/07/10 01:40:14;;;;;;;13.30;11.05;;;;;;;20.07;100.00;101067.53;689606;28;4398;-55
2023/07/10 01:40:37;;;;;;;12.65;10.68;;;;;;;20.02;100.00;101066.88;688906;28;872;-54
2023/07/10 01:41:02;;;;;;;13.97;10.73;;;;;;;20.00;100.00;101063.41;685947;28;1470;-54
2023/07/10 01:41:38;;;;;;;13.48;10.80;;;;;;;19.97;100.00;101065.31;687303;28;1000;-55
2023/07/10 01:41:58;;;;;;;11.00;9.90;;;;;;;19.93;100.00;101067.22;688801;28;1475;-55
2023/07/10 01:42:19;;;;;;;12.07;10.38;;;;;;;19.90;100.00;101070.00;685942;28;4996;-53
2023/07/10 01:42:39;;;;;;;11.95;10.60;;;;;;;19.91;100.00;101071.72;686764;28;1248;-54
2023/07/10 01:43:00;;;;;;;12.13;10.90;;;;;;;19.89;100.00;101074.41;688969;28;1073;-55
2023/07/10 01:43:21;;;;;;;11.98;10.38;;;;;;;19.87;100.00;101072.75;687179;28;4421;-53
2023/07/10 01:43:42;;;;;;;11.18;9.98;;;;;;;19.85;100.00;101071.94;687397;28;928;-55
2023/07/10 01:44:16;;;;;;;12.47;10.70;;;;;;;19.85;100.00;101074.59;686699;28;1259;-53
2023/07/10 01:44:40;;;;;;;13.50;10.35;;;;;;;19.88;100.00;101072.72;687314;28;3058;-55
2023/07/10 01:45:00;;;;;;;12.63;10.48;;;;;;;19.89;100.00;101068.25;685835;28;1481;-55
2023/07/10 01:45:21;;;;;;;12.00;10.00;;;;;;;19.94;100.00;101070.72;689361;28;913;-53
2023/07/10 01:45:44;;;;;;;12.57;9.98;;;;;;;19.93;100.00;101072.53;688162;28;1475;-56
2023/07/10 01:46:17;;;;;;;11.77;10.15;;;;;;;19.94;100.00;101071.59;685950;28;1361;-54
2023/07/10 01:46:38;;;;;;;13.13;10.88;;;;;;;19.93;100.00;101075.19;684022;28;5045;-55
2023/07/10 01:47:00;;;;;;;11.40;10.15;;;;;;;19.98;100.00;101075.88;685225;28;1113;-55
2023/07/10 01:47:21;;;;;;;11.90;10.27;;;;;;;20.01;100.00;101078.41;682055;28;1592;-53
2023/07/10 01:47:43;;;;;;;11.57;10.20;;;;;;;19.97;100.00;101076.78;684722;28;1249;-55
2023/07/10 01:48:03;;;;;;;15.33;10.80;;;;;;;19.95;100.00;101083.97;686154;28;819;-54
2023/07/10 01:48:28;;;;;;;15.85;11.02;;;;;;;19.93;100.00;101072.53;687300;28;1020;-55
2023/07/10 01:48:52;;;;;;;15.20;11.45;;;;;;;20.01;100.00;101078.41;686031;28;1551;-56
2023/07/10 01:49:14;;;;;;;15.15;12.80;;;;;;;19.97;100.00;101074.13;685440;28;4554;-53
2023/07/10 01:49:43;;;;;;;13.67;11.80;;;;;;;20.01;100.00;101072.25;686529;28;1382;-54
2023/07/10 01:50:04;;;;;;;14.85;12.18;;;;;;;20.10;100.00;101086.94;682959;28;2123;-53
2023/07/10 01:50:24;;;;;;;13.25;11.77;;;;;;;20.05;100.00;101080.03;682108;29;1449;-55
2023/07/10 01:50:45;;;;;;;15.17;11.50;;;;;;;20.06;100.00;101081.75;681143;28;1696;-54